Armstrong, Texas
Current Conditions -  °F | °C
As of 11:15 AM on Sunday 21 Dec 2014 (Local Time) from KBKS Reporting Station
Overcast Overcast  
Wind Chill: 55°   Ceiling: 700
Heat Index: 55°   Visibility: 4mi
Dew Point: 52°   Wind: 5mph
Humidity: 89%   Direction: 360°N
Pressure: 30.1"   Gusts: NA
Location:  26.92°N, 97.79°W
Report Text: KBKS 211715Z AUTO 36004KT 4SM OVC007 13/11 A3010 RMK AO1 T01300112
Loading
Personal Weather Stations






























Interactive Weather Map New forecast layout! Learn more

10-Day Weather Forecast

Advertisements
Track Severe Weather on mobile